Time;durP1;ratioP1;P1;durP2;ratioP2;P2;SDS_P1;SDS_P2;PMS_P1;PMS_P2;Temp;Humidity;BMP_temperature;BMP_pressure;BME280_temperature;BME280_humidity;BME280_pressure;Samples;Min_cycle;Max_cycle;Signal;HPM_P1;HPM_P2
2023/06/28 00:00:14;;;;;;;10.50;3.95;;;13.90;99.90;;;;;;5053156;28;20075;-65
2023/06/28 00:02:39;;;;;;;7.53;3.35;;;13.90;99.90;;;;;;5035457;28;20083;-64
2023/06/28 00:05:09;;;;;;;12.70;3.72;;;13.80;99.90;;;;;;5052170;28;20099;-64
2023/06/28 00:07:35;;;;;;;7.03;3.47;;;13.80;99.90;;;;;;5053297;28;20072;-65
2023/06/28 00:10:02;;;;;;;9.00;3.90;;;13.80;99.90;;;;;;5051894;28;20049;-65
2023/06/28 00:12:29;;;;;;;8.70;3.70;;;13.80;99.90;;;;;;5051804;28;20414;-64
2023/06/28 00:14:56;;;;;;;10.45;4.35;;;13.80;99.90;;;;;;5053048;28;20041;-65
2023/06/28 00:17:29;;;;;;;9.70;4.30;;;13.70;99.90;;;;;;5052080;28;20087;-65
2023/06/28 00:19:58;;;;;;;13.27;4.32;;;13.70;99.90;;;;;;5053117;28;20083;-64
2023/06/28 00:22:29;;;;;;;7.95;3.83;;;13.70;99.90;;;;;;5053089;28;20120;-64
2023/06/28 00:25:02;;;;;;;8.18;3.88;;;13.70;99.90;;;;;;5052749;28;20552;-65
2023/06/28 00:27:28;;;;;;;13.73;4.43;;;13.70;99.90;;;;;;5051622;28;20041;-65
2023/06/28 00:29:55;;;;;;;11.13;4.78;;;13.70;99.90;;;;;;5052774;28;20116;-65
2023/06/28 00:32:22;;;;;;;9.95;4.35;;;13.70;99.90;;;;;;5052619;28;20060;-65
2023/06/28 00:34:48;;;;;;;12.45;4.53;;;13.70;99.90;;;;;;5052809;28;20053;-64
2023/06/28 00:37:14;;;;;;;7.18;4.22;;;13.70;99.90;;;;;;5051272;28;20037;-64
2023/06/28 00:39:40;;;;;;;9.65;4.53;;;13.70;99.90;;;;;;5052597;28;20039;-64
2023/06/28 00:42:06;;;;;;;7.60;4.32;;;13.70;99.90;;;;;;5051137;28;20049;-64
2023/06/28 00:44:31;;;;;;;6.03;4.18;;;13.70;99.90;;;;;;5050811;28;20131;-65
2023/06/28 00:46:58;;;;;;;10.68;4.65;;;13.70;99.90;;;;;;5051359;28;20466;-64
2023/06/28 00:49:28;;;;;;;9.73;4.72;;;13.70;99.90;;;;;;5051303;28;20249;-65
2023/06/28 00:51:54;;;;;;;8.35;4.63;;;13.70;99.90;;;;;;5067432;28;20055;-65
2023/06/28 00:54:20;;;;;;;9.23;4.30;;;13.70;99.90;;;;;;5051342;28;20102;-64
2023/06/28 00:56:48;;;;;;;11.20;4.88;;;13.60;99.90;;;;;;5052373;28;20645;-64
2023/06/28 00:59:15;;;;;;;8.45;4.95;;;13.70;99.90;;;;;;5050844;28;20080;-64
2023/06/28 01:01:42;;;;;;;10.82;4.68;;;13.60;99.90;;;;;;5050929;28;20037;-64
2023/06/28 01:04:07;;;;;;;8.02;4.35;;;13.60;99.90;;;;;;5052627;28;20064;-64
2023/06/28 01:06:37;;;;;;;13.93;5.35;;;13.60;99.90;;;;;;5052019;28;20501;-64
2023/06/28 01:09:04;;;;;;;11.57;4.93;;;13.60;99.90;;;;;;5052056;28;20469;-64
2023/06/28 01:11:33;;;;;;;14.05;4.90;;;13.60;99.90;;;;;;5052194;28;20111;-64
2023/06/28 01:14:00;;;;;;;9.32;4.50;;;13.50;99.90;;;;;;5051064;28;20056;-64
2023/06/28 01:16:26;;;;;;;9.52;4.70;;;13.50;99.90;;;;;;5052223;28;20152;-64
2023/06/28 01:18:52;;;;;;;10.23;5.20;;;13.50;99.90;;;;;;5050678;28;20123;-64
2023/06/28 01:21:20;;;;;;;13.77;5.57;;;13.50;99.90;;;;;;5051852;28;20048;-64
2023/06/28 01:23:46;;;;;;;10.45;5.03;;;13.40;99.90;;;;;;5051747;28;20028;-64
2023/06/28 01:26:12;;;;;;;8.88;5.80;;;13.50;99.90;;;;;;5051971;28;20038;-64
2023/06/28 01:28:38;;;;;;;14.35;5.50;;;13.50;99.90;;;;;;5050054;28;20509;-64
2023/06/28 01:31:06;;;;;;;9.43;4.63;;;13.40;99.90;;;;;;5033707;28;20045;-64
2023/06/28 01:33:31;;;;;;;9.52;5.38;;;13.50;99.90;;;;;;5033627;28;20141;-64
2023/06/28 01:35:57;;;;;;;8.80;4.93;;;13.40;99.90;;;;;;5050245;28;20045;-64
2023/06/28 01:38:26;;;;;;;11.65;4.93;;;13.40;99.90;;;;;;5051396;28;20045;-64
2023/06/28 01:40:53;;;;;;;11.90;5.75;;;13.50;99.90;;;;;;5050349;28;20178;-64
2023/06/28 01:43:20;;;;;;;9.07;5.40;;;13.40;99.90;;;;;;5051507;28;20451;-64
2023/06/28 01:45:46;;;;;;;9.05;5.15;;;13.40;99.90;;;;;;5050033;28;20041;-64
2023/06/28 01:48:12;;;;;;;7.53;5.13;;;13.40;99.90;;;;;;5051626;28;20064;-64
2023/06/28 01:50:39;;;;;;;11.85;5.45;;;13.40;99.90;;;;;;5050059;28;20487;-64
2023/06/28 01:53:06;;;;;;;12.68;5.60;;;13.40;99.90;;;;;;5051458;28;20040;-64
2023/06/28 01:55:32;;;;;;;14.38;5.45;;;13.40;99.90;;;;;;5048941;28;20528;-64
2023/06/28 01:57:58;;;;;;;8.77;5.30;;;13.40;99.90;;;;;;5049774;28;20072;-64
2023/06/28 02:00:24;;;;;;;8.73;5.20;;;13.40;99.90;;;;;;5051487;28;20167;-64
2023/06/28 02:02:52;;;;;;;9.82;5.38;;;13.30;99.90;;;;;;5049933;28;20037;-64
2023/06/28 02:05:18;;;;;;;11.07;5.25;;;13.40;99.90;;;;;;5050984;28;20112;-64
2023/06/28 02:07:44;;;;;;;8.95;4.93;;;13.30;99.90;;;;;;5050915;28;20162;-64
2023/06/28 02:10:10;;;;;;;10.45;5.20;;;13.30;99.90;;;;;;5051263;28;20045;-64
2023/06/28 02:12:36;;;;;;;9.57;5.40;;;13.30;99.90;;;;;;5032917;28;20479;-63
2023/06/28 02:15:04;;;;;;;9.52;5.50;;;13.30;99.90;;;;;;5049843;28;20045;-64
2023/06/28 02:17:30;;;;;;;10.48;5.45;;;13.30;99.90;;;;;;5049480;28;20541;-64
2023/06/28 02:19:56;;;;;;;8.68;4.63;;;13.30;99.90;;;;;;5050796;28;20081;-64
2023/06/28 02:22:22;;;;;;;10.48;5.35;;;13.30;99.90;;;;;;5050720;28;20080;-64
2023/06/28 02:24:48;;;;;;;10.68;5.55;;;13.30;99.90;;;;;;5049696;28;20048;-64
2023/06/28 02:27:14;;;;;;;13.30;5.97;;;13.30;99.90;;;;;;5049404;28;20481;-64
2023/06/28 02:29:40;;;;;;;12.10;5.75;;;13.30;99.90;;;;;;5050405;28;20569;-64
2023/06/28 02:32:06;;;;;;;14.23;5.72;;;13.30;99.90;;;;;;5050555;28;20040;-64
2023/06/28 02:34:32;;;;;;;9.18;5.68;;;13.40;99.90;;;;;;5050255;28;20106;-65
2023/06/28 02:36:58;;;;;;;9.77;5.45;;;13.30;99.90;;;;;;5049312;28;20045;-64
2023/06/28 02:39:24;;;;;;;11.02;5.72;;;13.40;99.90;;;;;;5049045;28;20041;-64
2023/06/28 02:41:50;;;;;;;13.93;5.13;;;13.30;99.90;;;;;;5050590;28;20037;-64
2023/06/28 02:44:16;;;;;;;10.93;5.53;;;13.30;99.90;;;;;;5050466;28;20048;-64
2023/06/28 02:46:42;;;;;;;9.50;5.40;;;13.30;99.90;;;;;;5065926;28;20041;-64
2023/06/28 02:49:08;;;;;;;9.57;5.43;;;13.30;99.90;;;;;;5048929;28;20045;-64
2023/06/28 02:51:34;;;;;;;10.20;5.65;;;13.30;99.90;;;;;;5050089;28;20047;-64
2023/06/28 02:54:00;;;;;;;8.73;5.05;;;13.40;99.90;;;;;;5048998;28;20049;-64
2023/06/28 02:56:25;;;;;;;8.15;5.50;;;13.40;99.90;;;;;;5049017;28;20463;-64
2023/06/28 02:58:52;;;;;;;11.85;5.70;;;13.40;99.90;;;;;;5049636;28;20036;-64
2023/06/28 03:01:20;;;;;;;11.95;5.78;;;13.40;99.90;;;;;;5049078;28;20387;-64
2023/06/28 03:03:46;;;;;;;14.73;6.07;;;13.40;99.90;;;;;;5048483;28;20566;-64
2023/06/28 03:06:12;;;;;;;11.80;5.47;;;13.40;99.90;;;;;;5050338;28;20044;-64
2023/06/28 03:08:38;;;;;;;13.82;5.90;;;13.40;99.90;;;;;;5053344;28;20392;-64
2023/06/28 03:11:03;;;;;;;9.40;5.90;;;13.40;99.90;;;;;;5054012;28;20037;-64
2023/06/28 03:13:29;;;;;;;15.30;6.28;;;13.40;99.90;;;;;;5036201;28;20037;-64
2023/06/28 03:15:55;;;;;;;8.90;5.03;;;13.40;99.90;;;;;;5069447;28;20483;-64
2023/06/28 03:18:20;;;;;;;11.52;6.45;;;13.50;99.90;;;;;;5054362;28;20071;-64
2023/06/28 03:20:46;;;;;;;12.73;6.55;;;13.50;99.90;;;;;;5052830;28;20177;-64
2023/06/28 03:23:12;;;;;;;14.75;6.07;;;13.50;99.90;;;;;;5036119;28;20107;-64
2023/06/28 03:25:38;;;;;;;12.55;6.40;;;13.50;99.90;;;;;;5036016;28;20055;-64
2023/06/28 03:28:03;;;;;;;13.73;6.18;;;13.50;99.90;;;;;;5035639;28;20551;-65
2023/06/28 03:30:29;;;;;;;12.30;6.57;;;13.50;99.90;;;;;;5051898;28;20076;-64
2023/06/28 03:32:55;;;;;;;11.63;6.70;;;13.60;99.90;;;;;;5053587;28;20156;-64
2023/06/28 03:35:20;;;;;;;12.30;7.07;;;13.60;99.90;;;;;;5053466;28;20047;-64
2023/06/28 03:37:53;;;;;;;14.80;6.53;;;13.60;99.90;;;;;;5053752;28;20041;-64
2023/06/28 03:40:20;;;;;;;16.85;6.63;;;13.60;99.90;;;;;;5053847;28;20147;-65
2023/06/28 03:42:47;;;;;;;10.85;6.82;;;13.70;99.90;;;;;;5053338;28;20496;-64
2023/06/28 03:45:14;;;;;;;16.52;6.97;;;13.70;99.90;;;;;;5051852;28;20444;-64
2023/06/28 03:47:40;;;;;;;10.65;6.07;;;13.70;99.90;;;;;;5052340;28;20076;-64
2023/06/28 03:50:06;;;;;;;10.20;6.18;;;13.70;99.90;;;;;;5053540;28;20072;-64
2023/06/28 03:52:32;;;;;;;10.80;7.07;;;13.80;99.90;;;;;;5053459;28;20112;-64
2023/06/28 03:54:58;;;;;;;11.65;6.40;;;13.80;99.90;;;;;;5051899;28;20116;-64
2023/06/28 03:57:23;;;;;;;10.63;6.43;;;13.70;99.90;;;;;;5051628;28;20041;-64
2023/06/28 03:59:49;;;;;;;12.93;6.65;;;13.80;99.90;;;;;;5053098;28;20044;-64
2023/06/28 04:02:15;;;;;;;11.13;6.78;;;13.80;99.90;;;;;;5052466;28;20045;-64
2023/06/28 04:04:41;;;;;;;14.15;7.30;;;13.80;99.90;;;;;;5052796;28;20498;-64
2023/06/28 04:07:07;;;;;;;10.95;6.57;;;13.80;99.90;;;;;;5068705;28;20099;-64
2023/06/28 04:09:33;;;;;;;14.75;7.82;;;13.90;99.90;;;;;;5051708;28;20468;-64
2023/06/28 04:11:59;;;;;;;12.27;6.65;;;13.90;99.90;;;;;;5053022;28;20120;-64
2023/06/28 04:14:25;;;;;;;13.85;7.07;;;13.90;99.90;;;;;;5052940;28;20394;-64
2023/06/28 04:16:51;;;;;;;10.93;7.25;;;13.90;99.90;;;;;;5051957;28;20049;-64
2023/06/28 04:19:18;;;;;;;14.27;7.20;;;13.90;99.90;;;;;;5051822;28;20041;-64
2023/06/28 04:21:43;;;;;;;14.05;8.25;;;14.00;99.90;;;;;;5051859;28;20544;-64
2023/06/28 04:24:09;;;;;;;10.25;6.85;;;13.90;99.90;;;;;;5053047;28;20260;-64
2023/06/28 04:26:35;;;;;;;11.88;7.10;;;14.00;99.90;;;;;;5052880;28;20575;-64
2023/06/28 04:29:01;;;;;;;11.20;7.05;;;14.00;99.90;;;;;;5051370;28;20049;-64
2023/06/28 04:31:28;;;;;;;13.48;7.53;;;14.00;99.90;;;;;;5052700;28;20098;-64
2023/06/28 04:33:57;;;;;;;10.65;7.85;;;14.00;99.90;;;;;;5051466;28;20064;-64
2023/06/28 04:36:25;;;;;;;9.68;7.32;;;14.00;99.90;;;;;;5067609;28;20502;-64
2023/06/28 04:38:54;;;;;;;14.60;7.50;;;14.10;99.90;;;;;;5052792;28;20155;-64
2023/06/28 04:41:25;;;;;;;13.18;7.55;;;14.10;99.90;;;;;;5052572;28;20049;-64
2023/06/28 04:43:55;;;;;;;14.30;7.95;;;14.20;99.90;;;;;;5053131;28;20048;-64
2023/06/28 04:46:28;;;;;;;12.50;7.80;;;14.20;99.90;;;;;;5051604;28;20103;-64
2023/06/28 04:48:56;;;;;;;13.50;7.82;;;14.20;99.90;;;;;;5052572;28;20115;-64
2023/06/28 04:51:22;;;;;;;13.68;7.75;;;14.20;99.90;;;;;;5051271;28;20041;-64
2023/06/28 04:53:48;;;;;;;13.15;8.23;;;14.20;99.90;;;;;;5050970;28;20045;-64
2023/06/28 04:56:14;;;;;;;12.95;7.75;;;14.20;99.90;;;;;;5052221;28;20036;-64
2023/06/28 04:58:41;;;;;;;11.05;6.85;;;14.20;99.90;;;;;;5050599;28;20044;-64
2023/06/28 05:01:07;;;;;;;10.68;7.50;;;14.30;99.90;;;;;;5051165;28;20048;-64
2023/06/28 05:03:34;;;;;;;13.25;6.90;;;14.30;99.90;;;;;;5051117;28;20060;-64
2023/06/28 05:06:06;;;;;;;11.10;7.40;;;14.30;99.90;;;;;;5050758;28;20041;-64
2023/06/28 05:08:34;;;;;;;10.00;7.20;;;14.30;99.90;;;;;;5052182;28;20048;-64
2023/06/28 05:11:01;;;;;;;12.65;7.18;;;14.30;99.90;;;;;;5052014;28;20312;-64
2023/06/28 05:13:27;;;;;;;12.23;7.18;;;14.30;99.90;;;;;;5034397;28;20041;-64
2023/06/28 05:15:55;;;;;;;12.68;6.97;;;14.30;99.90;;;;;;5067304;28;20043;-64
2023/06/28 05:18:20;;;;;;;11.40;7.03;;;14.30;99.90;;;;;;5050789;28;20429;-64
2023/06/28 05:20:47;;;;;;;12.80;6.75;;;14.30;99.90;;;;;;5050540;28;20052;-64
2023/06/28 05:23:16;;;;;;;13.20;7.47;;;14.30;99.90;;;;;;5050600;28;20041;-64
2023/06/28 05:25:43;;;;;;;12.05;6.85;;;14.40;99.90;;;;;;5050504;28;20553;-64
2023/06/28 05:28:11;;;;;;;8.40;6.00;;;14.40;99.90;;;;;;5051759;28;20032;-64
2023/06/28 05:30:37;;;;;;;7.30;5.47;;;14.40;99.90;;;;;;5050168;28;20029;-64
2023/06/28 05:33:03;;;;;;;9.05;5.93;;;14.50;99.90;;;;;;5051594;28;20122;-64
2023/06/28 05:35:33;;;;;;;9.57;5.93;;;14.40;99.90;;;;;;5051636;28;20033;-64
2023/06/28 05:38:03;;;;;;;13.15;5.63;;;14.50;99.90;;;;;;5050228;28;20079;-64
2023/06/28 05:40:30;;;;;;;9.02;5.40;;;14.50;99.90;;;;;;5051446;28;20041;-64
2023/06/28 05:42:58;;;;;;;8.15;5.50;;;14.60;99.90;;;;;;5066878;28;20237;-64
2023/06/28 05:45:25;;;;;;;11.00;5.28;;;14.60;99.90;;;;;;5051496;28;20450;-64
2023/06/28 05:47:51;;;;;;;9.20;5.10;;;14.70;99.90;;;;;;5050081;28;20041;-64
2023/06/28 05:50:17;;;;;;;10.70;4.65;;;14.70;99.90;;;;;;5051855;28;20029;-64
2023/06/28 05:52:44;;;;;;;10.20;5.35;;;14.70;99.90;;;;;;5051212;28;20056;-64
2023/06/28 05:55:11;;;;;;;7.60;4.40;;;14.80;99.90;;;;;;5051286;28;20041;-64
2023/06/28 05:57:37;;;;;;;12.48;4.75;;;14.80;99.90;;;;;;5050902;28;20044;-64
2023/06/28 06:00:08;;;;;;;8.55;4.22;;;14.80;99.90;;;;;;5066467;28;20354;-64
2023/06/28 06:02:34;;;;;;;7.88;3.78;;;14.90;99.90;;;;;;5051058;28;20048;-64
2023/06/28 06:05:01;;;;;;;8.07;3.80;;;14.90;99.90;;;;;;5033127;28;20040;-64
2023/06/28 06:07:27;;;;;;;6.80;3.10;;;14.90;99.90;;;;;;5051092;28;20048;-64
2023/06/28 06:09:54;;;;;;;4.07;3.00;;;14.90;99.90;;;;;;5049680;28;20045;-64
2023/06/28 06:12:20;;;;;;;5.47;2.78;;;15.00;99.90;;;;;;5050875;28;20045;-64
2023/06/28 06:14:50;;;;;;;3.70;3.00;;;15.00;99.90;;;;;;5050857;28;20037;-64
2023/06/28 06:17:18;;;;;;;5.47;2.60;;;15.10;99.90;;;;;;5049616;28;20040;-64
2023/06/28 06:19:44;;;;;;;5.55;3.40;;;15.10;99.90;;;;;;5049828;28;20047;-64
2023/06/28 06:22:10;;;;;;;5.28;2.85;;;15.10;99.90;;;;;;5050722;28;20064;-64
2023/06/28 06:24:36;;;;;;;7.13;3.50;;;15.20;99.90;;;;;;5051268;28;20037;-64
2023/06/28 06:27:02;;;;;;;6.57;3.20;;;15.30;99.90;;;;;;5050780;28;20049;-64
2023/06/28 06:29:28;;;;;;;7.50;3.10;;;15.30;99.90;;;;;;5049253;28;20048;-64
2023/06/28 06:31:54;;;;;;;5.60;2.70;;;15.40;99.90;;;;;;5050518;28;20417;-64
2023/06/28 06:34:20;;;;;;;9.48;3.45;;;15.50;99.90;;;;;;5050565;28;20060;-64
2023/06/28 06:36:45;;;;;;;8.18;3.40;;;15.50;99.90;;;;;;5049549;28;20083;-64
2023/06/28 06:39:11;;;;;;;6.72;3.38;;;15.60;99.90;;;;;;5050500;28;20406;-64
2023/06/28 06:41:37;;;;;;;12.35;3.38;;;15.60;99.90;;;;;;5048572;28;20490;-64
2023/06/28 06:44:02;;;;;;;9.45;3.50;;;15.70;99.90;;;;;;5049283;28;20048;-64
2023/06/28 06:46:28;;;;;;;6.05;3.28;;;15.70;99.90;;;;;;5050411;28;20498;-64
2023/06/28 06:48:55;;;;;;;7.88;3.90;;;15.80;99.90;;;;;;5050355;28;20057;-64
2023/06/28 06:51:21;;;;;;;7.05;3.72;;;15.80;99.90;;;;;;5050477;28;20053;-64
2023/06/28 06:53:47;;;;;;;7.90;4.10;;;15.80;99.90;;;;;;5049324;28;20041;-64
2023/06/28 06:56:12;;;;;;;11.02;4.65;;;15.90;99.90;;;;;;5050332;28;20513;-64
2023/06/28 06:58:38;;;;;;;9.32;4.50;;;15.90;99.90;;;;;;5050088;28;20036;-65
2023/06/28 07:01:04;;;;;;;11.40;4.57;;;15.90;99.90;;;;;;5050104;28;20490;-64
2023/06/28 07:03:30;;;;;;;8.07;4.40;;;15.90;99.90;;;;;;5049167;28;20036;-64
2023/06/28 07:05:55;;;;;;;10.63;4.70;;;15.90;99.90;;;;;;5048937;28;20405;-64
2023/06/28 07:08:21;;;;;;;9.82;4.65;;;16.00;99.90;;;;;;5048918;28;20571;-64
2023/06/28 07:10:47;;;;;;;8.38;4.47;;;15.90;99.90;;;;;;5048678;28;20041;-64
2023/06/28 07:13:14;;;;;;;10.73;4.85;;;16.00;99.90;;;;;;5048667;28;20076;-64
2023/06/28 07:15:40;;;;;;;11.10;5.25;;;16.00;99.90;;;;;;5050013;28;20059;-64
2023/06/28 07:18:05;;;;;;;9.10;4.88;;;16.00;99.90;;;;;;5049906;28;20550;-64
2023/06/28 07:20:34;;;;;;;8.52;5.20;;;16.00;99.90;;;;;;5049976;28;20041;-64
2023/06/28 07:23:00;;;;;;;9.90;5.28;;;16.00;99.90;;;;;;5048580;28;20045;-64
2023/06/28 07:25:25;;;;;;;11.05;5.13;;;16.00;99.90;;;;;;5050087;28;20037;-64
2023/06/28 07:27:51;;;;;;;11.15;5.28;;;16.00;99.90;;;;;;5048606;28;20080;-64
2023/06/28 07:30:17;;;;;;;8.55;5.03;;;16.00;99.90;;;;;;5048780;28;20544;-64
2023/06/28 07:32:42;;;;;;;12.30;5.55;;;16.10;99.90;;;;;;5049568;28;20555;-64
2023/06/28 07:35:08;;;;;;;12.60;5.25;;;16.10;99.90;;;;;;5048585;28;20045;-64
2023/06/28 07:37:34;;;;;;;8.90;5.50;;;16.10;99.90;;;;;;5032299;28;20052;-64
2023/06/28 07:40:00;;;;;;;9.73;4.90;;;16.10;99.90;;;;;;5048655;28;20044;-64
2023/06/28 07:42:27;;;;;;;8.27;5.50;;;16.10;99.90;;;;;;5048579;28;20110;-65
2023/06/28 07:44:53;;;;;;;8.93;5.65;;;16.10;99.90;;;;;;5031713;28;20049;-64
2023/06/28 07:47:18;;;;;;;10.27;5.55;;;16.10;99.90;;;;;;5048554;28;20041;-64
2023/06/28 07:49:44;;;;;;;8.95;5.07;;;16.10;99.90;;;;;;5049713;28;20059;-65
2023/06/28 07:52:10;;;;;;;8.90;5.75;;;16.00;99.90;;;;;;5048513;28;20064;-64
2023/06/28 07:54:36;;;;;;;12.13;6.35;;;15.90;99.90;;;;;;5052887;28;20371;-64
2023/06/28 07:57:03;;;;;;;16.83;7.00;;;15.90;99.90;;;;;;5052230;28;20399;-64
2023/06/28 07:59:28;;;;;;;10.73;7.10;;;15.90;99.90;;;;;;5053389;28;20037;-64
2023/06/28 08:01:54;;;;;;;13.73;6.85;;;15.80;99.90;;;;;;5053509;28;20103;-64
2023/06/28 08:04:20;;;;;;;13.25;6.55;;;15.80;99.90;;;;;;5053300;28;20045;-64
2023/06/28 08:06:46;;;;;;;15.52;6.88;;;15.80;99.90;;;;;;5052305;28;20033;-64
2023/06/28 08:09:12;;;;;;;19.98;8.63;;;15.80;99.90;;;;;;5052266;28;20390;-64
2023/06/28 08:11:39;;;;;;;14.25;7.38;;;15.80;99.90;;;;;;5068545;28;20512;-65
2023/06/28 08:14:05;;;;;;;18.27;8.25;;;15.80;99.90;;;;;;5051924;28;20049;-65
2023/06/28 08:16:31;;;;;;;17.92;9.18;;;15.80;99.90;;;;;;5052176;28;20445;-65
2023/06/28 08:18:57;;;;;;;18.23;9.32;;;15.90;99.90;;;;;;5068628;28;20033;-65
2023/06/28 08:21:22;;;;;;;16.67;8.88;;;15.90;99.90;;;;;;5052086;28;20041;-65
2023/06/28 08:23:48;;;;;;;14.75;8.10;;;16.00;99.90;;;;;;5035066;28;20387;-65
2023/06/28 08:26:14;;;;;;;17.67;9.30;;;15.90;99.90;;;;;;5052973;28;20098;-65
2023/06/28 08:28:40;;;;;;;14.52;8.95;;;15.90;99.90;;;;;;5051092;28;20045;-65
2023/06/28 08:31:06;;;;;;;13.55;8.95;;;15.80;99.90;;;;;;5053145;28;20041;-65
2023/06/28 08:33:31;;;;;;;17.70;9.68;;;15.80;99.90;;;;;;5051467;28;20410;-65
2023/06/28 08:35:57;;;;;;;16.17;8.85;;;15.70;99.90;;;;;;5051389;28;20048;-65
2023/06/28 08:38:23;;;;;;;19.63;9.27;;;15.70;99.90;;;;;;5068179;28;20037;-65
2023/06/28 08:40:48;;;;;;;17.35;9.75;;;15.80;99.90;;;;;;5051240;28;20033;-66
2023/06/28 08:43:17;;;;;;;17.38;9.90;;;15.90;99.90;;;;;;5051635;28;20041;-65
2023/06/28 08:45:46;;;;;;;21.55;9.65;;;16.10;99.90;;;;;;5051475;28;20050;-65
2023/06/28 08:48:13;;;;;;;16.60;10.27;;;16.20;99.90;;;;;;5051556;28;20393;-65
2023/06/28 08:50:40;;;;;;;15.88;10.15;;;16.30;99.90;;;;;;5017977;28;20044;-65
2023/06/28 08:53:11;;;;;;;15.18;9.85;;;16.40;99.90;;;;;;5051244;28;20045;-66
2023/06/28 08:55:37;;;;;;;20.25;9.38;;;16.40;99.90;;;;;;5050958;28;20047;-65
2023/06/28 08:58:05;;;;;;;13.50;9.20;;;16.50;99.90;;;;;;5067488;28;20040;-66
2023/06/28 09:00:31;;;;;;;16.50;9.25;;;16.50;99.90;;;;;;5050865;28;20119;-65
2023/06/28 09:02:57;;;;;;;13.40;8.98;;;16.50;99.90;;;;;;5051076;28;20128;-65
2023/06/28 09:05:23;;;;;;;17.08;8.88;;;16.50;99.90;;;;;;5050292;28;20045;-65
2023/06/28 09:07:51;;;;;;;13.60;9.70;;;16.40;99.90;;;;;;5050895;28;20045;-65
2023/06/28 09:10:17;;;;;;;13.32;9.15;;;16.50;99.90;;;;;;5034119;28;20127;-65
2023/06/28 09:12:45;;;;;;;17.83;10.27;;;16.50;99.90;;;;;;5034218;28;20398;-65
2023/06/28 09:15:11;;;;;;;15.60;9.63;;;16.60;99.90;;;;;;5051007;28;20384;-65
2023/06/28 09:17:36;;;;;;;14.20;8.65;;;16.60;99.90;;;;;;5050704;28;20549;-65
2023/06/28 09:20:16;;;;;;;16.13;9.43;;;16.70;99.90;;;;;;5050650;28;20041;-65
2023/06/28 09:22:42;;;;;;;15.27;8.88;;;16.70;99.90;;;;;;5050813;28;20037;-65
2023/06/28 09:25:08;;;;;;;14.80;8.95;;;16.70;99.90;;;;;;5050704;28;20709;-65
2023/06/28 09:27:34;;;;;;;15.90;8.75;;;16.60;99.90;;;;;;5050273;28;20044;-66
2023/06/28 09:30:00;;;;;;;14.68;8.55;;;16.60;99.90;;;;;;5051611;28;20055;-65
2023/06/28 09:32:39;;;;;;;15.82;9.05;;;16.60;99.90;;;;;;5051877;28;20617;-65
2023/06/28 09:35:11;;;;;;;15.85;8.63;;;16.60;99.90;;;;;;5050164;28;20049;-65
2023/06/28 09:37:40;;;;;;;15.27;9.10;;;16.60;99.90;;;;;;5050670;28;20386;-65
2023/06/28 09:40:06;;;;;;;14.60;9.10;;;16.70;99.90;;;;;;5050037;28;20103;-65
2023/06/28 09:42:44;;;;;;;17.75;9.85;;;16.60;99.90;;;;;;5050160;28;20510;-65
2023/06/28 09:45:22;;;;;;;18.27;8.98;;;16.60;99.90;;;;;;5050046;28;20044;-65
2023/06/28 09:47:57;;;;;;;14.27;8.95;;;16.60;99.90;;;;;;5050346;28;20079;-65
2023/06/28 09:50:37;;;;;;;16.50;9.82;;;16.60;99.90;;;;;;5050120;28;20094;-65
2023/06/28 09:53:25;;;;;;;18.30;9.15;;;16.60;99.90;;;;;;5051347;28;20561;-65
2023/06/28 09:55:51;;;;;;;17.63;9.73;;;16.60;99.90;;;;;;5049932;28;20049;-65
2023/06/28 09:58:19;;;;;;;16.48;10.50;;;16.70;99.90;;;;;;5050968;28;20123;-65
2023/06/28 10:00:47;;;;;;;17.92;10.30;;;16.60;99.90;;;;;;5033166;28;20051;-65
2023/06/28 10:03:15;;;;;;;15.43;10.55;;;16.60;99.90;;;;;;5033337;28;20524;-65
2023/06/28 10:05:43;;;;;;;13.90;9.88;;;16.60;99.90;;;;;;5051114;28;20079;-65
2023/06/28 10:08:11;;;;;;;19.95;11.15;;;16.60;99.90;;;;;;5050261;28;20037;-65
2023/06/28 10:10:38;;;;;;;15.65;10.55;;;16.60;99.90;;;;;;5049530;28;20053;-65
2023/06/28 10:13:08;;;;;;;18.10;10.82;;;16.60;99.90;;;;;;5051001;28;20040;-65
2023/06/28 10:15:42;;;;;;;19.88;12.23;;;16.60;99.90;;;;;;5050850;28;20047;-65
2023/06/28 10:18:12;;;;;;;18.05;11.15;;;16.60;99.90;;;;;;5048683;28;20502;-65
2023/06/28 10:20:41;;;;;;;20.15;11.95;;;16.60;99.90;;;;;;5050834;28;20041;-65
2023/06/28 10:23:12;;;;;;;18.77;12.20;;;16.50;99.90;;;;;;5049543;28;20033;-65
2023/06/28 10:25:40;;;;;;;22.90;12.43;;;16.50;99.90;;;;;;5049572;28;20032;-65
2023/06/28 10:28:07;;;;;;;21.70;12.20;;;16.50;99.90;;;;;;5049085;28;20040;-65
2023/06/28 10:30:33;;;;;;;18.27;12.98;;;16.60;99.90;;;;;;5016414;28;20045;-64
2023/06/28 10:33:00;;;;;;;21.23;13.15;;;16.60;99.90;;;;;;5050262;28;20128;-65
2023/06/28 10:35:27;;;;;;;22.65;13.23;;;16.70;99.90;;;;;;5050573;28;20055;-65
2023/06/28 10:37:56;;;;;;;26.45;13.93;;;16.70;99.90;;;;;;5050410;28;20037;-65
2023/06/28 10:40:23;;;;;;;18.40;12.85;;;16.80;99.90;;;;;;5049195;28;20056;-64
2023/06/28 10:42:49;;;;;;;23.40;13.18;;;16.80;99.90;;;;;;5032829;28;20045;-65
2023/06/28 10:45:15;;;;;;;23.40;13.88;;;16.80;99.90;;;;;;5050476;28;20359;-65
2023/06/28 10:47:53;;;;;;;25.42;14.05;;;16.80;99.90;;;;;;5032657;28;20091;-66
2023/06/28 10:50:23;;;;;;;22.67;13.48;;;16.90;99.90;;;;;;5050771;28;20044;-65
2023/06/28 10:52:56;;;;;;;19.60;12.73;;;16.90;99.90;;;;;;5048851;28;20041;-65
2023/06/28 10:55:29;;;;;;;27.10;14.00;;;16.80;99.90;;;;;;5049121;28;20052;-65
2023/06/28 10:58:08;;;;;;;26.65;15.25;;;16.80;99.90;;;;;;5048547;28;20040;-65
2023/06/28 11:00:37;;;;;;;22.27;14.20;;;16.80;99.90;;;;;;5032569;28;20045;-65
2023/06/28 11:03:06;;;;;;;25.60;15.57;;;16.80;99.90;;;;;;5050209;28;20091;-65
2023/06/28 11:05:54;;;;;;;30.98;15.43;;;16.90;99.90;;;;;;5032606;28;20171;-65
2023/06/28 11:08:21;;;;;;;24.52;14.88;;;16.80;99.90;;;;;;5049161;28;20083;-65
2023/06/28 11:10:53;;;;;;;26.73;15.32;;;16.80;99.90;;;;;;5048701;28;20138;-65
2023/06/28 11:13:34;;;;;;;24.90;15.57;;;16.80;99.90;;;;;;5049091;28;20056;-64
2023/06/28 11:16:11;;;;;;;29.57;16.23;;;16.80;99.90;;;;;;5050298;28;20069;-65
2023/06/28 11:18:38;;;;;;;24.63;15.65;;;16.80;99.90;;;;;;5048815;28;20049;-65
2023/06/28 11:21:05;;;;;;;28.80;16.05;;;16.80;99.90;;;;;;5032187;28;20037;-65
2023/06/28 11:23:39;;;;;;;26.27;15.60;;;16.80;99.90;;;;;;5048590;28;20134;-65
2023/06/28 11:26:06;;;;;;;26.30;15.73;;;16.80;99.90;;;;;;5048890;28;20099;-65
2023/06/28 11:28:34;;;;;;;29.23;15.23;;;16.80;99.90;;;;;;5050221;28;20047;-64
2023/06/28 11:31:21;;;;;;;26.02;15.07;;;16.70;99.90;;;;;;5054029;28;20036;-65
2023/06/28 11:33:48;;;;;;;26.90;15.02;;;16.80;99.90;;;;;;5039054;28;20087;-65
2023/06/28 11:36:14;;;;;;;23.88;15.23;;;16.80;99.90;;;;;;5073947;28;20044;-64
2023/06/28 11:38:45;;;;;;;24.48;15.35;;;16.80;99.90;;;;;;5073648;28;20044;-64
2023/06/28 11:41:14;;;;;;;23.52;15.40;;;16.80;99.90;;;;;;5073811;28;20041;-65
2023/06/28 11:43:41;;;;;;;28.30;16.08;;;16.80;99.90;;;;;;5055786;28;20052;-65
2023/06/28 11:46:07;;;;;;;24.17;15.13;;;16.70;99.90;;;;;;5039223;28;20044;-64
2023/06/28 11:48:33;;;;;;;23.05;15.77;;;16.70;99.90;;;;;;5073588;28;20036;-64
2023/06/28 11:51:00;;;;;;;26.13;15.13;;;16.80;99.90;;;;;;5073628;28;20063;-65
2023/06/28 11:53:27;;;;;;;24.52;15.05;;;16.80;99.90;;;;;;5072353;28;20043;-65
2023/06/28 11:55:54;;;;;;;20.98;15.07;;;16.90;99.90;;;;;;5055578;28;20040;-64
2023/06/28 11:58:34;;;;;;;23.35;15.23;;;16.90;99.90;;;;;;5073186;28;20044;-65
2023/06/28 12:01:01;;;;;;;21.60;14.88;;;17.00;99.90;;;;;;5055605;28;20044;-64
2023/06/28 12:03:38;;;;;;;25.98;15.25;;;17.00;99.90;;;;;;5073510;28;20036;-64
2023/06/28 12:06:07;;;;;;;23.45;15.00;;;17.10;99.90;;;;;;5073639;28;20489;-65
2023/06/28 12:08:37;;;;;;;22.02;14.63;;;17.00;99.90;;;;;;5055310;28;20095;-64
2023/06/28 12:11:14;;;;;;;25.70;14.82;;;17.10;99.90;;;;;;5055297;28;20051;-64
2023/06/28 12:13:40;;;;;;;22.25;13.70;;;17.10;99.90;;;;;;5072998;28;20504;-64
2023/06/28 12:16:14;;;;;;;20.95;14.30;;;17.20;99.90;;;;;;5055170;28;20497;-64
2023/06/28 12:18:58;;;;;;;20.30;15.73;;;17.30;99.90;;;;;;5055030;28;20036;-64
2023/06/28 12:21:25;;;;;;;24.23;15.80;;;17.30;99.90;;;;;;5073136;28;20047;-64
2023/06/28 12:23:51;;;;;;;18.05;13.57;;;17.30;99.90;;;;;;5055211;28;20048;-64
2023/06/28 12:26:17;;;;;;;22.67;14.60;;;17.30;99.90;;;;;;5072816;28;20493;-64
2023/06/28 12:28:50;;;;;;;19.83;14.23;;;17.30;99.90;;;;;;5054600;28;20047;-65
2023/06/28 12:31:16;;;;;;;20.70;14.75;;;17.30;99.90;;;;;;5071632;28;20106;-64
2023/06/28 12:33:42;;;;;;;19.83;14.30;;;17.30;99.90;;;;;;5054669;28;20568;-64
2023/06/28 12:36:18;;;;;;;18.30;13.85;;;17.30;99.90;;;;;;5072970;28;20040;-65
2023/06/28 12:38:45;;;;;;;21.63;14.75;;;17.30;99.90;;;;;;5054902;28;20090;-64